Time;durP1;ratioP1;P1;durP2;ratioP2;P2;SDS_P1;SDS_P2;PMS_P1;PMS_P2;Temp;Humidity;BMP_temperature;BMP_pressure;BME280_temperature;BME280_humidity;BME280_pressure;Samples;Min_cycle;Max_cycle;Signal;HPM_P1;HPM_P2
2022/07/18 00:01:55;;;;;;;;;;;;;;;28.90;40.96;101560.85;104854;1306;60553;-81
2022/07/18 00:04:21;;;;;;;;;;;;;;;28.90;41.03;101561.92;104867;1306;60345;-81
2022/07/18 00:06:46;;;;;;;;;;;;;;;28.90;41.12;101562.98;104871;1306;60456;-81
2022/07/18 00:09:12;;;;;;;;;;;;;;;28.90;41.10;101561.05;104757;1306;60700;-81
2022/07/18 00:11:37;;;;;;;;;;;;;;;28.90;40.93;101563.23;104716;1306;60607;-82
2022/07/18 00:14:02;;;;;;;;;;;;;;;28.90;41.07;101563.42;104699;1306;60446;-81
2022/07/18 00:16:28;;;;;;;;;;;;;;;28.89;41.11;101566.73;104844;1306;60482;-81
2022/07/18 00:18:55;;;;;;;;;;;;;;;28.89;40.86;101562.73;104826;1305;60462;-82
2022/07/18 00:21:20;;;;;;;;;;;;;;;28.89;41.12;101562.19;104896;1306;60587;-82
2022/07/18 00:23:46;;;;;;;;;;;;;;;28.89;40.98;101559.54;104744;1306;61243;-82
2022/07/18 00:26:11;;;;;;;;;;;;;;;28.88;40.98;101559.38;104714;1306;60490;-82
2022/07/18 00:28:36;;;;;;;;;;;;;;;28.88;40.94;101558.31;104720;1306;60469;-81
2022/07/18 00:31:02;;;;;;;;;;;;;;;28.88;40.86;101562.63;104859;1306;60433;-81
2022/07/18 00:33:27;;;;;;;;;;;;;;;28.88;40.98;101562.11;104751;1306;60487;-81
2022/07/18 00:35:53;;;;;;;;;;;;;;;28.88;40.78;101560.49;104840;1306;60577;-81
2022/07/18 00:38:18;;;;;;;;;;;;;;;28.88;41.07;101559.82;104859;1306;60512;-81
2022/07/18 00:40:44;;;;;;;;;;;;;;;28.87;40.91;101561.45;104752;1306;60545;-81
2022/07/18 00:43:12;;;;;;;;;;;;;;;28.87;40.81;101560.94;104868;1305;60558;-81
2022/07/18 00:45:37;;;;;;;;;;;;;;;28.87;40.83;101566.38;104908;1306;60574;-81
2022/07/18 00:48:07;;;;;;;;;;;;;;;28.87;40.96;101571.06;104851;1306;60485;-81
2022/07/18 00:50:33;;;;;;;;;;;;;;;28.88;40.83;101570.86;104860;1306;72667;-81
2022/07/18 00:52:58;;;;;;;;;;;;;;;28.87;40.89;101576.39;104864;1306;60465;-81
2022/07/18 00:55:23;;;;;;;;;;;;;;;28.87;40.99;101580.16;104701;1306;60599;-81
2022/07/18 00:57:49;;;;;;;;;;;;;;;28.87;40.83;101592.49;104872;1306;60478;-81
2022/07/18 01:02:58;;;;;;;;;;;;;;;28.87;41.03;101589.61;104745;1306;73014;-81
2022/07/18 01:05:24;;;;;;;;;;;;;;;28.86;40.83;101593.10;104853;1306;60971;-81
2022/07/18 01:07:51;;;;;;;;;;;;;;;28.86;40.88;101589.10;104908;1306;60494;-81
2022/07/18 01:10:17;;;;;;;;;;;;;;;28.86;40.94;101590.58;104909;1306;60461;-81
2022/07/18 01:12:43;;;;;;;;;;;;;;;28.86;40.76;101588.64;104840;1305;60491;-81
2022/07/18 01:15:08;;;;;;;;;;;;;;;28.86;40.77;101584.77;104886;1306;60492;-81
2022/07/18 01:17:34;;;;;;;;;;;;;;;28.85;40.64;101590.80;104755;1306;61174;-81
2022/07/18 01:19:59;;;;;;;;;;;;;;;28.86;40.90;101587.00;104871;1306;60389;-81
2022/07/18 01:22:25;;;;;;;;;;;;;;;28.86;40.75;101592.98;104765;1306;60466;-81
2022/07/18 01:24:51;;;;;;;;;;;;;;;28.85;40.94;101591.54;104881;1304;60551;-81
2022/07/18 01:27:17;;;;;;;;;;;;;;;28.85;40.69;101591.59;104831;1306;60419;-81
2022/07/18 01:29:43;;;;;;;;;;;;;;;28.85;40.62;101590.72;104720;1306;60519;-82
2022/07/18 01:32:09;;;;;;;;;;;;;;;28.85;40.63;101593.36;104835;1306;60434;-82
2022/07/18 01:34:34;;;;;;;;;;;;;;;28.84;40.78;101596.70;104838;1306;60449;-83
2022/07/18 01:37:00;;;;;;;;;;;;;;;28.84;40.83;101599.27;104887;1306;60468;-83
2022/07/18 01:39:25;;;;;;;;;;;;;;;28.84;40.73;101594.17;104742;1306;60587;-82
2022/07/18 01:41:58;;;;;;;;;;;;;;;28.84;41.02;101596.01;104814;1306;60506;-82
2022/07/18 01:44:24;;;;;;;;;;;;;;;28.84;40.73;101592.95;104716;1306;60402;-81
2022/07/18 01:46:49;;;;;;;;;;;;;;;28.84;40.68;101596.77;104753;1306;60558;-81
2022/07/18 01:49:15;;;;;;;;;;;;;;;28.84;40.65;101608.02;104699;1304;60480;-81
2022/07/18 01:51:44;;;;;;;;;;;;;;;28.84;40.64;101607.28;104822;1306;60459;-81
2022/07/18 01:54:10;;;;;;;;;;;;;;;28.84;40.87;101612.91;104742;1306;60653;-81
2022/07/18 01:56:35;;;;;;;;;;;;;;;28.84;40.79;101609.65;104810;1306;60425;-81
2022/07/18 01:59:02;;;;;;;;;;;;;;;28.83;40.54;101613.83;104843;1306;61426;-81
2022/07/18 02:01:27;;;;;;;;;;;;;;;28.83;40.41;101615.83;104737;1306;60462;-81
2022/07/18 02:03:53;;;;;;;;;;;;;;;28.83;40.62;101619.09;104890;1306;60513;-81
2022/07/18 02:06:18;;;;;;;;;;;;;;;28.83;40.49;101623.11;104751;1304;60467;-81
2022/07/18 02:08:44;;;;;;;;;;;;;;;28.82;40.54;101629.12;104747;1306;72772;-81
2022/07/18 02:11:09;;;;;;;;;;;;;;;28.83;40.56;101628.58;104870;1306;60485;-81
2022/07/18 02:13:35;;;;;;;;;;;;;;;28.82;40.62;101633.15;104901;1306;59265;-81
2022/07/18 02:16:00;;;;;;;;;;;;;;;28.82;40.68;101634.95;104712;1306;60609;-81
2022/07/18 02:18:26;;;;;;;;;;;;;;;28.81;40.70;101636.64;104805;1306;60496;-81
2022/07/18 02:20:51;;;;;;;;;;;;;;;28.81;40.73;101635.02;104911;1306;74146;-81
2022/07/18 02:23:17;;;;;;;;;;;;;;;28.81;40.94;101635.77;104819;1306;60429;-81
2022/07/18 02:25:42;;;;;;;;;;;;;;;28.81;40.89;101631.27;104875;1306;60454;-81
2022/07/18 02:28:08;;;;;;;;;;;;;;;28.81;40.52;101629.13;104872;1306;60607;-81
2022/07/18 02:30:34;;;;;;;;;;;;;;;28.81;40.56;101628.59;104884;1306;60475;-81
2022/07/18 02:32:59;;;;;;;;;;;;;;;28.80;40.58;101631.33;104842;1306;73668;-81
2022/07/18 02:35:25;;;;;;;;;;;;;;;28.80;40.68;101629.90;104722;1306;60546;-81
2022/07/18 02:37:50;;;;;;;;;;;;;;;28.80;40.55;101639.50;104887;1306;60517;-81
2022/07/18 02:40:15;;;;;;;;;;;;;;;28.80;40.66;101644.25;104733;1306;60408;-81
2022/07/18 02:42:41;;;;;;;;;;;;;;;28.79;40.77;101646.63;104792;1306;60465;-81
2022/07/18 02:45:07;;;;;;;;;;;;;;;28.79;40.71;101648.29;104876;1306;60505;-81
2022/07/18 02:47:32;;;;;;;;;;;;;;;28.79;40.74;101654.27;104690;1306;60571;-81
2022/07/18 02:49:58;;;;;;;;;;;;;;;28.79;40.79;101658.08;104744;1306;60452;-81
2022/07/18 02:52:23;;;;;;;;;;;;;;;28.79;40.48;101662.45;104806;1306;60483;-81
2022/07/18 02:54:49;;;;;;;;;;;;;;;28.79;40.82;101661.35;104873;1306;60606;-81
2022/07/18 02:57:15;;;;;;;;;;;;;;;28.78;40.58;101659.64;104864;1306;60516;-81
2022/07/18 02:59:40;;;;;;;;;;;;;;;28.78;40.56;101663.45;104748;1306;60472;-81
2022/07/18 03:02:06;;;;;;;;;;;;;;;28.78;40.48;101667.39;104701;1306;61165;-81
2022/07/18 03:04:31;;;;;;;;;;;;;;;28.78;40.56;101665.44;104694;1305;60526;-81
2022/07/18 03:06:57;;;;;;;;;;;;;;;28.77;40.51;101662.55;104742;1306;60488;-81
2022/07/18 03:09:22;;;;;;;;;;;;;;;28.78;40.67;101662.02;104753;1306;60627;-81
2022/07/18 03:11:48;;;;;;;;;;;;;;;28.78;40.79;101657.29;104891;1305;73807;-81
2022/07/18 03:14:14;;;;;;;;;;;;;;;28.77;40.55;101662.96;104898;1306;60503;-81
2022/07/18 03:16:39;;;;;;;;;;;;;;;28.78;40.51;101659.98;104825;1306;60498;-81
2022/07/18 03:19:04;;;;;;;;;;;;;;;28.78;40.53;101665.45;104702;1306;60456;-81
2022/07/18 03:21:30;;;;;;;;;;;;;;;28.76;40.58;101667.34;104722;1306;60486;-81
2022/07/18 03:23:56;;;;;;;;;;;;;;;28.77;40.78;101669.64;104727;1306;60494;-81
2022/07/18 03:26:21;;;;;;;;;;;;;;;28.77;40.61;101674.16;104739;1306;60585;-81
2022/07/18 03:28:47;;;;;;;;;;;;;;;28.77;40.42;101675.62;104700;1306;60472;-81
2022/07/18 03:31:12;;;;;;;;;;;;;;;28.77;40.65;101674.36;104738;1306;60439;-81
2022/07/18 03:33:38;;;;;;;;;;;;;;;28.77;40.58;101674.70;104947;1306;60475;-81
2022/07/18 03:36:05;;;;;;;;;;;;;;;28.76;40.63;101675.48;104932;1306;73757;-80
2022/07/18 03:38:30;;;;;;;;;;;;;;;28.77;40.52;101680.17;104890;1306;60481;-81
2022/07/18 03:40:56;;;;;;;;;;;;;;;28.76;40.69;101681.83;104848;1305;60894;-81
2022/07/18 03:43:22;;;;;;;;;;;;;;;28.77;40.57;101686.31;104745;1306;60382;-81
2022/07/18 03:45:47;;;;;;;;;;;;;;;28.77;40.73;101689.95;104896;1306;60597;-81
2022/07/18 03:48:13;;;;;;;;;;;;;;;28.77;40.70;101698.08;104879;1303;61759;-81
2022/07/18 03:50:39;;;;;;;;;;;;;;;28.77;40.59;101697.73;104818;1306;61087;-81
2022/07/18 03:53:04;;;;;;;;;;;;;;;28.77;40.70;101699.50;104917;1305;60479;-81
2022/07/18 03:55:30;;;;;;;;;;;;;;;28.77;40.52;101702.23;104859;1305;60594;-81
2022/07/18 03:57:55;;;;;;;;;;;;;;;28.78;40.49;101702.39;104637;1306;60588;-81
2022/07/18 04:00:21;;;;;;;;;;;;;;;28.77;40.72;101706.20;104915;1306;60449;-81
2022/07/18 04:02:46;;;;;;;;;;;;;;;28.78;40.64;101706.68;104766;1306;60586;-81
2022/07/18 04:05:12;;;;;;;;;;;;;;;28.79;40.55;101709.75;104720;1306;60519;-81
2022/07/18 04:07:38;;;;;;;;;;;;;;;28.78;40.84;101710.15;104762;1304;60374;-81
2022/07/18 04:10:03;;;;;;;;;;;;;;;28.78;40.67;101708.73;104856;1306;60514;-81
2022/07/18 04:12:30;;;;;;;;;;;;;;;28.79;40.52;101712.46;104845;1306;60536;-81
2022/07/18 04:14:55;;;;;;;;;;;;;;;28.78;40.54;101714.66;104863;1306;60571;-81
2022/07/18 04:17:21;;;;;;;;;;;;;;;28.78;40.32;101716.84;104858;1306;60491;-81
2022/07/18 04:19:46;;;;;;;;;;;;;;;28.78;40.42;101714.11;104747;1306;60494;-81
2022/07/18 04:22:12;;;;;;;;;;;;;;;28.78;40.45;101723.16;104927;1306;61088;-81
2022/07/18 04:24:37;;;;;;;;;;;;;;;28.78;40.47;101722.33;104751;1306;60469;-81
2022/07/18 04:27:02;;;;;;;;;;;;;;;28.78;40.41;101728.80;104756;1306;60442;-81
2022/07/18 04:29:31;;;;;;;;;;;;;;;28.77;40.46;101730.67;104813;1306;60503;-81
2022/07/18 04:31:57;;;;;;;;;;;;;;;28.77;40.36;101729.59;104761;1305;73958;-81
2022/07/18 04:34:22;;;;;;;;;;;;;;;28.76;40.54;101732.23;104861;1306;60518;-81
2022/07/18 04:36:48;;;;;;;;;;;;;;;28.75;40.33;101734.11;104705;1306;60459;-81
2022/07/18 04:39:13;;;;;;;;;;;;;;;28.74;40.46;101733.64;104903;1306;60425;-81
2022/07/18 04:41:39;;;;;;;;;;;;;;;28.73;40.23;101734.83;104726;1306;60455;-81
2022/07/18 04:44:04;;;;;;;;;;;;;;;28.72;40.16;101731.88;104780;1304;60503;-81
2022/07/18 04:46:30;;;;;;;;;;;;;;;28.71;40.26;101735.20;104719;1306;60580;-81
2022/07/18 04:48:55;;;;;;;;;;;;;;;28.70;39.91;101743.27;104897;1306;60411;-81
2022/07/18 04:51:21;;;;;;;;;;;;;;;28.69;40.25;101748.27;104903;1306;60478;-81
2022/07/18 04:53:48;;;;;;;;;;;;;;;28.68;39.82;101754.49;104889;1306;60455;-81
2022/07/18 04:56:14;;;;;;;;;;;;;;;28.67;39.84;101756.41;104858;1306;60510;-81
2022/07/18 04:58:39;;;;;;;;;;;;;;;28.65;39.80;101751.13;104701;1306;60494;-81
2022/07/18 05:01:05;;;;;;;;;;;;;;;28.64;39.65;101755.20;104773;1306;60447;-81
2022/07/18 05:03:30;;;;;;;;;;;;;;;28.63;39.32;101752.90;104702;1305;60424;-81
2022/07/18 05:05:55;;;;;;;;;;;;;;;28.62;39.51;101753.18;104850;1306;60455;-81
2022/07/18 05:08:21;;;;;;;;;;;;;;;28.61;39.22;101756.33;104880;1306;60434;-81
2022/07/18 05:10:46;;;;;;;;;;;;;;;28.60;39.31;101759.70;104754;1305;60591;-81
2022/07/18 05:13:12;;;;;;;;;;;;;;;28.60;39.17;101763.37;104801;1306;60571;-81
2022/07/18 05:15:37;;;;;;;;;;;;;;;28.59;39.03;101765.75;104739;1303;60450;-81
2022/07/18 05:18:03;;;;;;;;;;;;;;;28.58;39.16;101769.98;104866;1306;60407;-81
2022/07/18 05:20:28;;;;;;;;;;;;;;;28.58;38.93;101771.85;104689;1306;60692;-81
2022/07/18 05:22:54;;;;;;;;;;;;;;;28.57;38.36;101773.52;104905;1306;60648;-81
2022/07/18 05:25:19;;;;;;;;;;;;;;;28.56;38.52;101777.76;104857;1306;60482;-81
2022/07/18 05:27:45;;;;;;;;;;;;;;;28.56;38.54;101781.58;104856;1306;60587;-81
2022/07/18 05:30:11;;;;;;;;;;;;;;;28.56;38.54;101782.89;104758;1305;60426;-81
2022/07/18 05:32:37;;;;;;;;;;;;;;;28.55;38.36;101783.14;104871;1306;60398;-81
2022/07/18 05:35:02;;;;;;;;;;;;;;;28.55;38.41;101784.44;104757;1306;60428;-81
2022/07/18 05:37:28;;;;;;;;;;;;;;;28.55;37.99;101784.79;104883;1306;60470;-81
2022/07/18 05:39:53;;;;;;;;;;;;;;;28.54;37.93;101788.98;104895;1305;61411;-81
2022/07/18 05:42:18;;;;;;;;;;;;;;;28.55;37.95;101786.07;104765;1306;60486;-81
2022/07/18 05:44:44;;;;;;;;;;;;;;;28.55;37.80;101791.34;104849;1306;60549;-81
2022/07/18 05:47:09;;;;;;;;;;;;;;;28.54;37.97;101789.23;104724;1306;60650;-81
2022/07/18 05:49:35;;;;;;;;;;;;;;;28.53;37.70;101787.27;104809;1306;60496;-81
2022/07/18 05:52:01;;;;;;;;;;;;;;;28.53;37.56;101786.27;104812;1306;60520;-81
2022/07/18 05:54:26;;;;;;;;;;;;;;;28.53;37.59;101789.15;104640;1306;60545;-82
2022/07/18 05:56:53;;;;;;;;;;;;;;;28.53;37.64;101791.86;104900;1305;60331;-81
2022/07/18 05:59:18;;;;;;;;;;;;;;;28.52;37.47;101798.65;104877;1305;60609;-81
2022/07/18 06:01:44;;;;;;;;;;;;;;;28.52;37.41;101802.79;104879;1306;60525;-81
2022/07/18 06:04:09;;;;;;;;;;;;;;;28.51;37.23;101804.64;104885;1306;60536;-81
2022/07/18 06:06:34;;;;;;;;;;;;;;;28.51;37.30;101803.75;104889;1305;73185;-81
2022/07/18 06:09:00;;;;;;;;;;;;;;;28.51;37.06;101804.34;104881;1306;60503;-82
2022/07/18 06:11:25;;;;;;;;;;;;;;;28.51;36.95;101806.15;104858;1306;60618;-81
2022/07/18 06:13:51;;;;;;;;;;;;;;;28.51;36.98;101806.89;104828;1306;60496;-81
2022/07/18 06:16:16;;;;;;;;;;;;;;;28.50;37.04;101811.27;104862;1305;60516;-81
2022/07/18 06:18:42;;;;;;;;;;;;;;;28.50;36.92;101813.81;104715;1306;73752;-81
2022/07/18 06:21:07;;;;;;;;;;;;;;;28.49;36.59;101809.20;104778;1306;60577;-81
2022/07/18 06:23:35;;;;;;;;;;;;;;;28.49;36.83;101809.97;104923;1305;60546;-81
2022/07/18 06:26:01;;;;;;;;;;;;;;;28.48;36.51;101808.02;104889;1306;60647;-81
2022/07/18 06:28:28;;;;;;;;;;;;;;;28.47;36.33;101809.42;103827;1306;1365975;-81
2022/07/18 06:30:53;;;;;;;;;;;;;;;28.46;36.33;101806.95;104849;1305;60374;-82
2022/07/18 06:33:19;;;;;;;;;;;;;;;28.45;36.27;101806.83;104829;1306;60578;-83
2022/07/18 06:35:46;;;;;;;;;;;;;;;28.45;36.06;101803.46;104864;1305;60542;-83
2022/07/18 06:38:12;;;;;;;;;;;;;;;28.45;36.21;101804.31;104810;1305;60373;-82
2022/07/18 06:40:37;;;;;;;;;;;;;;;28.44;36.13;101799.48;104872;1306;60475;-82
2022/07/18 06:43:03;;;;;;;;;;;;;;;28.44;36.00;101801.66;104874;1306;60416;-82
2022/07/18 06:45:28;;;;;;;;;;;;;;;28.45;35.88;101799.63;104812;1305;60439;-82
2022/07/18 06:47:54;;;;;;;;;;;;;;;28.44;35.78;101799.48;104888;1306;60446;-81
2022/07/18 06:50:19;;;;;;;;;;;;;;;28.45;35.74;101798.89;104779;1306;60488;-81
2022/07/18 06:52:45;;;;;;;;;;;;;;;28.45;35.78;101797.08;104859;1306;60472;-81
2022/07/18 06:55:11;;;;;;;;;;;;;;;28.44;35.57;101800.54;104867;1305;60517;-81
2022/07/18 06:57:36;;;;;;;;;;;;;;;28.45;35.61;101797.63;104856;1306;61064;-81
2022/07/18 07:00:02;;;;;;;;;;;;;;;28.45;35.45;101795.96;104893;1305;60471;-81
2022/07/18 07:02:28;;;;;;;;;;;;;;;28.45;35.29;101797.62;104900;1306;60452;-81
2022/07/18 07:04:53;;;;;;;;;;;;;;;28.45;35.54;101792.56;104862;1306;60503;-81
2022/07/18 07:07:19;;;;;;;;;;;;;;;28.44;35.22;101791.52;104915;1304;60462;-81
2022/07/18 07:09:44;;;;;;;;;;;;;;;28.45;35.34;101793.30;104926;1304;60604;-81
2022/07/18 07:12:10;;;;;;;;;;;;;;;28.45;35.18;101793.64;104956;1304;60515;-81
2022/07/18 07:14:36;;;;;;;;;;;;;;;28.45;35.23;101793.85;104902;1306;60548;-81
2022/07/18 07:17:01;;;;;;;;;;;;;;;28.45;35.20;101792.40;104844;1306;61257;-81
2022/07/18 07:19:27;;;;;;;;;;;;;;;28.44;35.07;101793.89;104859;1305;60458;-81
2022/07/18 07:21:52;;;;;;;;;;;;;;;28.45;34.99;101795.99;104834;1306;60478;-81
2022/07/18 07:24:17;;;;;;;;;;;;;;;28.44;35.13;101795.14;104706;1305;60474;-81
2022/07/18 07:26:43;;;;;;;;;;;;;;;28.44;35.06;101796.08;104878;1306;60484;-81
2022/07/18 07:29:08;;;;;;;;;;;;;;;28.44;34.96;101789.17;104856;1306;60477;-81
2022/07/18 07:31:34;;;;;;;;;;;;;;;28.45;34.92;101793.27;104898;1304;60477;-81
2022/07/18 07:33:59;;;;;;;;;;;;;;;28.45;34.99;101797.39;104922;1305;59257;-81
2022/07/18 07:36:25;;;;;;;;;;;;;;;28.46;34.86;101790.48;104840;1305;60498;-81
2022/07/18 07:38:50;;;;;;;;;;;;;;;28.46;34.80;101793.34;104875;1304;60438;-81
2022/07/18 07:41:16;;;;;;;;;;;;;;;28.46;34.92;101789.34;104824;1306;60478;-81
2022/07/18 07:43:41;;;;;;;;;;;;;;;28.46;34.77;101787.95;104782;1306;60601;-81
2022/07/18 07:46:07;;;;;;;;;;;;;;;28.47;34.68;101789.35;104821;1306;60438;-81
2022/07/18 07:48:32;;;;;;;;;;;;;;;28.47;34.75;101786.22;104884;1306;60589;-81
2022/07/18 07:50:57;;;;;;;;;;;;;;;28.47;34.70;101782.41;104847;1304;61125;-81
2022/07/18 07:53:24;;;;;;;;;;;;;;;28.48;34.79;101780.17;104864;1305;60478;-81
2022/07/18 07:55:49;;;;;;;;;;;;;;;28.48;34.65;101776.00;104869;1306;60581;-81
2022/07/18 07:58:14;;;;;;;;;;;;;;;28.48;34.62;101777.23;104916;1306;60343;-82
2022/07/18 08:00:40;;;;;;;;;;;;;;;28.48;34.64;101775.09;104838;1306;60475;-82
2022/07/18 08:03:06;;;;;;;;;;;;;;;28.48;34.37;101775.60;104803;1306;60536;-81
2022/07/18 08:05:33;;;;;;;;;;;;;;;28.47;34.60;101772.48;104866;1306;60347;-80
2022/07/18 08:07:59;;;;;;;;;;;;;;;28.46;34.16;101769.45;104877;1306;60577;-82
2022/07/18 08:10:24;;;;;;;;;;;;;;;28.47;34.56;101770.98;104837;1306;60432;-83
2022/07/18 08:12:50;;;;;;;;;;;;;;;28.48;34.18;101767.66;104831;1306;60568;-83
2022/07/18 08:15:15;;;;;;;;;;;;;;;28.49;34.36;101768.86;104805;1306;61020;-82
2022/07/18 08:17:41;;;;;;;;;;;;;;;28.49;34.24;101770.05;104901;1305;60562;-82
2022/07/18 08:20:07;;;;;;;;;;;;;;;28.50;34.28;101771.65;104913;1306;60564;-82
2022/07/18 08:22:32;;;;;;;;;;;;;;;28.50;34.05;101765.86;104856;1306;61201;-81
2022/07/18 08:24:57;;;;;;;;;;;;;;;28.51;34.02;101760.34;104863;1305;60458;-81
2022/07/18 08:27:23;;;;;;;;;;;;;;;28.51;34.09;101762.70;104709;1306;60565;-81
2022/07/18 08:29:48;;;;;;;;;;;;;;;28.50;33.96;101765.11;104943;1305;60442;-81
2022/07/18 08:32:14;;;;;;;;;;;;;;;28.50;34.09;101761.29;104871;1306;60508;-81
2022/07/18 08:34:39;;;;;;;;;;;;;;;28.50;34.08;101758.95;104909;1306;60593;-81
2022/07/18 08:37:05;;;;;;;;;;;;;;;28.51;33.83;101758.18;104868;1305;60474;-81
2022/07/18 08:39:30;;;;;;;;;;;;;;;28.52;33.92;101754.99;104928;1305;60510;-81
2022/07/18 08:41:56;;;;;;;;;;;;;;;28.52;33.81;101754.21;104893;1305;60574;-81
2022/07/18 08:44:21;;;;;;;;;;;;;;;28.52;33.90;101754.23;104655;1306;60475;-81
2022/07/18 08:46:48;;;;;;;;;;;;;;;28.52;33.58;101753.54;104832;1305;60599;-81
2022/07/18 08:49:14;;;;;;;;;;;;;;;28.52;33.59;101751.92;104868;1306;60571;-81
2022/07/18 08:51:39;;;;;;;;;;;;;;;28.52;33.73;101749.20;104820;1306;60474;-81
2022/07/18 08:54:05;;;;;;;;;;;;;;;28.52;33.63;101753.13;104831;1305;60453;-81
2022/07/18 08:56:30;;;;;;;;;;;;;;;28.54;33.63;101751.39;104742;1304;61155;-81
2022/07/18 08:58:56;;;;;;;;;;;;;;;28.54;33.60;101749.39;104805;1305;60544;-81
2022/07/18 09:01:22;;;;;;;;;;;;;;;28.55;33.45;101746.55;104766;1306;74016;-81
2022/07/18 09:04:14;;;;;;;;;;;;;;;28.56;33.47;101745.92;104730;1306;60543;-81
2022/07/18 09:06:43;;;;;;;;;;;;;;;28.56;33.56;101748.96;104728;1305;60351;-81
2022/07/18 09:09:08;;;;;;;;;;;;;;;28.58;33.61;101745.71;104671;1306;61657;-81
2022/07/18 09:11:34;;;;;;;;;;;;;;;28.59;33.18;101745.29;104812;1306;60462;-81
2022/07/18 09:13:59;;;;;;;;;;;;;;;28.59;33.44;101735.66;104818;1306;60606;-81
2022/07/18 09:16:26;;;;;;;;;;;;;;;28.60;33.61;101738.28;104747;1306;60468;-81
2022/07/18 09:18:52;;;;;;;;;;;;;;;28.62;33.40;101738.41;104732;1305;60511;-81
2022/07/18 09:21:18;;;;;;;;;;;;;;;28.63;33.04;101737.37;104735;1305;60402;-81
2022/07/18 09:23:51;;;;;;;;;;;;;;;28.64;33.38;101737.11;104797;1305;72611;-81
2022/07/18 09:26:35;;;;;;;;;;;;;;;28.64;33.14;101732.74;104782;1305;74030;-81
2022/07/18 09:29:01;;;;;;;;;;;;;;;28.64;33.08;101732.91;104759;1305;61275;-81
2022/07/18 09:31:26;;;;;;;;;;;;;;;28.65;33.13;101723.45;104831;1305;60599;-81
2022/07/18 09:33:52;;;;;;;;;;;;;;;28.65;33.13;101722.86;104838;1305;60446;-81
2022/07/18 09:36:18;;;;;;;;;;;;;;;28.66;33.16;101727.53;104826;1305;61721;-82
2022/07/18 09:38:43;;;;;;;;;;;;;;;28.67;33.21;101727.30;104683;1306;60480;-82
2022/07/18 09:41:10;;;;;;;;;;;;;;;28.67;33.00;101728.16;104886;1306;60548;-82
2022/07/18 09:43:36;;;;;;;;;;;;;;;28.67;33.26;101717.34;104812;1306;62477;-81
2022/07/18 09:46:03;;;;;;;;;;;;;;;28.67;32.95;101720.02;104741;1305;60554;-81
2022/07/18 09:48:29;;;;;;;;;;;;;;;28.67;33.18;101716.90;104818;1306;75224;-80
2022/07/18 09:51:01;;;;;;;;;;;;;;;28.68;32.87;101712.86;104837;1305;60581;-80
2022/07/18 09:53:27;;;;;;;;;;;;;;;28.68;32.86;101714.30;104974;1306;60818;-81
2022/07/18 09:55:54;;;;;;;;;;;;;;;28.68;32.94;101708.86;104806;1304;60474;-81
2022/07/18 09:58:29;;;;;;;;;;;;;;;28.69;33.05;101718.24;104830;1306;60461;-81
2022/07/18 10:00:55;;;;;;;;;;;;;;;28.69;32.98;101712.98;104838;1306;61041;-81
2022/07/18 10:03:21;;;;;;;;;;;;;;;28.69;32.91;101708.40;104835;1305;60471;-81
2022/07/18 10:05:47;;;;;;;;;;;;;;;28.69;32.68;101704.63;104747;1306;59352;-81
2022/07/18 10:08:13;;;;;;;;;;;;;;;28.69;32.87;101707.28;104836;1305;60460;-82
2022/07/18 10:10:39;;;;;;;;;;;;;;;28.69;32.70;101701.11;104848;1306;60478;-81
2022/07/18 10:13:05;;;;;;;;;;;;;;;28.70;32.68;101699.12;104855;1306;60441;-81
2022/07/18 10:15:32;;;;;;;;;;;;;;;28.70;32.93;101701.27;104808;1306;60516;-81
2022/07/18 10:17:58;;;;;;;;;;;;;;;28.70;32.75;101692.91;104838;1306;60574;-81
2022/07/18 10:20:34;;;;;;;;;;;;;;;28.70;32.56;101688.08;104865;1306;60454;-81
2022/07/18 10:23:07;;;;;;;;;;;;;;;28.70;32.67;101682.23;104781;1306;61143;-81
2022/07/18 10:25:33;;;;;;;;;;;;;;;28.70;32.71;101682.10;104834;1306;73685;-81
2022/07/18 10:28:05;;;;;;;;;;;;;;;28.70;32.57;101680.98;104726;1305;60574;-80
2022/07/18 10:30:31;;;;;;;;;;;;;;;28.69;32.39;101682.84;104816;1304;60364;-81
2022/07/18 10:32:57;;;;;;;;;;;;;;;28.69;32.57;101683.76;104933;1305;60460;-81
2022/07/18 10:35:42;;;;;;;;;;;;;;;28.69;32.65;101677.97;104822;1305;60556;-81
2022/07/18 10:38:21;;;;;;;;;;;;;;;28.69;32.42;101677.06;104785;1306;73755;-81
2022/07/18 10:41:05;;;;;;;;;;;;;;;28.69;32.56;101674.34;104832;1306;60538;-81
2022/07/18 10:43:31;;;;;;;;;;;;;;;28.70;32.43;101670.69;104829;1306;60368;-81
2022/07/18 10:45:56;;;;;;;;;;;;;;;28.69;32.55;101666.54;104804;1306;60443;-81
2022/07/18 10:48:54;;;;;;;;;;;;;;;28.69;32.27;101659.84;104721;1306;61284;-80
2022/07/18 10:51:20;;;;;;;;;;;;;;;28.70;32.40;101669.40;104571;1308;60564;-81
2022/07/18 10:54:05;;;;;;;;;;;;;;;28.70;32.33;101667.77;104474;1310;60423;-81
2022/07/18 10:56:57;;;;;;;;;;;;;;;28.70;32.41;101661.25;104561;1309;71845;-81
2022/07/18 10:59:25;;;;;;;;;;;;;;;28.70;32.43;101657.97;104130;1316;74990;-83
2022/07/18 11:01:54;;;;;;;;;;;;;;;28.70;32.52;101654.54;104005;1318;60368;-80
2022/07/18 11:04:22;;;;;;;;;;;;;;;28.70;32.34;101653.05;104137;1316;62215;-80
2022/07/18 11:06:58;;;;;;;;;;;;;;;28.71;32.23;101655.02;104129;1316;73822;-80
2022/07/18 11:09:35;;;;;;;;;;;;;;;28.71;32.46;101649.22;104107;1316;73998;-83
2022/07/18 11:12:19;;;;;;;;;;;;;;;28.71;32.10;101648.27;104139;1316;61657;-83
2022/07/18 11:15:03;;;;;;;;;;;;;;;28.71;32.22;101645.90;104155;1316;60326;-83
2022/07/18 11:17:47;;;;;;;;;;;;;;;28.71;32.17;101645.90;104148;1316;72827;-83
2022/07/18 11:20:25;;;;;;;;;;;;;;;28.72;32.20;101642.94;104168;1318;75062;-83
2022/07/18 11:22:50;;;;;;;;;;;;;;;28.71;32.28;101639.73;104146;1316;60478;-80
2022/07/18 11:25:17;;;;;;;;;;;;;;;28.72;32.23;101636.05;104175;1316;60465;-81
2022/07/18 11:27:42;;;;;;;;;;;;;;;28.72;32.05;101629.34;104254;1313;60347;-81
2022/07/18 11:30:08;;;;;;;;;;;;;;;28.72;32.14;101627.16;104340;1313;60499;-81
2022/07/18 11:32:35;;;;;;;;;;;;;;;28.72;32.07;101626.65;104132;1313;60469;-81
2022/07/18 11:35:05;;;;;;;;;;;;;;;28.72;32.03;101628.60;104070;1312;60806;-81
2022/07/18 11:37:31;;;;;;;;;;;;;;;28.72;32.05;101622.79;104570;1306;72204;-81
2022/07/18 11:40:03;;;;;;;;;;;;;;;28.73;32.02;101619.33;104509;1306;60423;-81
2022/07/18 11:42:36;;;;;;;;;;;;;;;28.73;32.18;101615.10;104751;1305;60471;-82
2022/07/18 11:45:02;;;;;;;;;;;;;;;28.74;32.08;101616.33;104657;1305;61721;-81
2022/07/18 11:47:28;;;;;;;;;;;;;;;28.74;31.84;101608.47;104730;1305;60438;-81
2022/07/18 11:49:54;;;;;;;;;;;;;;;28.75;31.99;101603.17;104766;1305;60517;-81
2022/07/18 11:52:19;;;;;;;;;;;;;;;28.75;31.76;101597.55;104843;1306;60573;-81
2022/07/18 11:54:45;;;;;;;;;;;;;;;28.75;31.94;101597.17;104839;1306;60473;-81
2022/07/18 11:57:10;;;;;;;;;;;;;;;28.76;31.92;101594.02;104841;1306;60462;-81
2022/07/18 11:59:40;;;;;;;;;;;;;;;28.76;31.89;101590.21;104695;1306;74400;-81
2022/07/18 12:02:05;;;;;;;;;;;;;;;28.77;31.78;101594.67;104780;1306;73799;-81
2022/07/18 12:04:30;;;;;;;;;;;;;;;28.77;31.81;101597.91;104839;1306;60470;-81
2022/07/18 12:07:15;;;;;;;;;;;;;;;28.77;31.81;101593.74;104821;1306;60568;-81
2022/07/18 12:09:41;;;;;;;;;;;;;;;28.78;31.90;101583.39;104751;1306;72841;-81
2022/07/18 12:12:07;;;;;;;;;;;;;;;28.78;31.85;101579.58;104624;1306;60564;-81
2022/07/18 12:14:32;;;;;;;;;;;;;;;28.79;31.70;101578.58;104658;1305;60465;-81
2022/07/18 12:16:58;;;;;;;;;;;;;;;28.79;31.76;101566.39;104757;1305;60605;-81
2022/07/18 12:19:34;;;;;;;;;;;;;;;28.80;31.64;101566.91;104824;1306;60454;-81
2022/07/18 12:22:02;;;;;;;;;;;;;;;28.80;31.84;101566.16;104836;1306;73821;-81
2022/07/18 12:24:29;;;;;;;;;;;;;;;28.80;31.94;101560.51;104844;1306;60382;-82
2022/07/18 12:27:14;;;;;;;;;;;;;;;28.81;31.67;101563.51;104920;1305;61365;-81